Rawson, Argentina
Current Conditions -  °F | °C
As of 1:00 PM on Thursday 18 Dec 2014 (Local Time) from SADF Reporting Station
Few Clouds Few Clouds  
Wind Chill: 30°   Ceiling: Unl
Heat Index: 30°   Visibility: 6mi
Dew Point: 14°   Wind: 6mph
Humidity: 37%   Direction: 290°WNW
Pressure: 29.85"   Gusts: NA
Location:  34.6°S, 60.07°W
Report Text: SADF 181600Z 29005KT 230V360 9999 FEW025 30/14 Q1011
Loading
Personal Weather Stations






























Interactive Weather Map New forecast layout! Learn more

10-Day Weather Forecast

Advertisements
Track Severe Weather on mobile